createdAt,value
2022-07-29T00:00:11.393Z,11.80
2022-07-29T00:01:19.341Z,11.90
2022-07-29T00:02:22.523Z,9.50
2022-07-29T00:03:25.359Z,10.64
2022-07-29T00:04:27.837Z,12.00
2022-07-29T00:05:30.035Z,10.70
2022-07-29T00:06:32.306Z,11.00
2022-07-29T00:07:34.413Z,7.70
2022-07-29T00:08:36.575Z,11.80
2022-07-29T00:09:50.400Z,11.30
2022-07-29T00:10:42.948Z,12.80
2022-07-29T00:11:45.037Z,9.10
2022-07-29T00:12:48.071Z,11.30
2022-07-29T00:13:51.142Z,10.50
2022-07-29T00:14:55.161Z,11.10
2022-07-29T00:15:58.604Z,13.00
2022-07-29T00:17:02.835Z,13.10
2022-07-29T00:18:05.181Z,11.60
2022-07-29T00:19:07.971Z,10.50
2022-07-29T00:20:11.983Z,13.90
2022-07-29T00:21:15.357Z,13.40
2022-07-29T00:22:17.523Z,14.30
2022-07-29T00:23:19.888Z,16.70
2022-07-29T00:24:22.451Z,17.00
2022-07-29T00:25:24.914Z,18.10
2022-07-29T00:26:28.924Z,19.60
2022-07-29T00:27:31.091Z,25.80
2022-07-29T00:28:33.367Z,22.60
2022-07-29T00:29:35.634Z,9.40
2022-07-29T00:30:38.352Z,16.45
2022-07-29T00:31:41.540Z,14.80
2022-07-29T00:32:43.806Z,17.20
2022-07-29T00:33:45.948Z,20.70
2022-07-29T00:34:48.015Z,21.30
2022-07-29T00:35:51.202Z,21.70
2022-07-29T00:36:56.100Z,15.40
2022-07-29T00:37:59.136Z,15.20
2022-07-29T00:39:01.259Z,13.80
2022-07-29T00:40:04.226Z,12.90
2022-07-29T00:41:06.447Z,10.73
2022-07-29T00:42:08.629Z,15.20
2022-07-29T00:43:13.208Z,15.30
2022-07-29T00:44:15.609Z,13.30
2022-07-29T00:45:18.801Z,10.60
2022-07-29T00:46:23.481Z,10.78
2022-07-29T00:47:25.728Z,9.70
2022-07-29T00:48:28.042Z,7.80
2022-07-29T00:49:30.205Z,7.90
2022-07-29T00:50:33.373Z,11.00
2022-07-29T00:51:38.092Z,6.30
2022-07-29T00:52:42.814Z,7.20
2022-07-29T00:53:45.977Z,10.00
2022-07-29T00:54:48.147Z,9.45
2022-07-29T00:55:51.329Z,8.30
2022-07-29T00:56:55.224Z,10.30
2022-07-29T00:57:59.122Z,9.18
2022-07-29T00:59:01.512Z,7.50
2022-07-29T01:00:06.870Z,9.60
2022-07-29T01:01:09.156Z,8.80
2022-07-29T01:02:11.329Z,8.30
2022-07-29T01:03:13.826Z,9.20
2022-07-29T01:04:16.428Z,8.50
2022-07-29T01:05:22.525Z,8.90
2022-07-29T01:06:27.137Z,5.30
2022-07-29T01:07:30.796Z,8.90
2022-07-29T01:08:33.696Z,7.00
2022-07-29T01:09:46.357Z,5.90
2022-07-29T01:10:44.377Z,6.40
2022-07-29T01:11:48.097Z,7.90
2022-07-29T01:12:54.121Z,6.80
2022-07-29T01:13:57.084Z,6.70
2022-07-29T01:15:02.148Z,5.50
2022-07-29T01:17:35.847Z,6.40
2022-07-29T01:18:41.959Z,4.20
2022-07-29T01:20:21.291Z,4.20
2022-07-29T01:21:48.130Z,4.50
2022-07-29T01:23:09.086Z,5.60
2022-07-29T01:24:30.214Z,6.30
2022-07-29T01:25:48.599Z,8.40
2022-07-29T01:27:10.901Z,5.80
2022-07-29T01:28:53.798Z,6.40
2022-07-29T01:30:01.243Z,6.90
2022-07-29T01:31:07.468Z,7.40
2022-07-29T01:32:22.609Z,7.30
2022-07-29T01:33:22.376Z,8.70
2022-07-29T01:34:28.153Z,8.90
2022-07-29T01:35:33.883Z,9.60
2022-07-29T01:36:39.758Z,11.80
2022-07-29T01:37:51.099Z,12.90
2022-07-29T01:39:06.722Z,10.10
2022-07-29T01:40:13.174Z,8.90
2022-07-29T01:41:19.676Z,13.80
2022-07-29T01:42:38.124Z,13.30
2022-07-29T01:43:46.846Z,15.80
2022-07-29T01:45:11.016Z,17.70
2022-07-29T01:46:18.665Z,19.20
2022-07-29T01:47:24.568Z,21.10
2022-07-29T01:48:42.696Z,15.70
2022-07-29T01:49:48.517Z,15.20
2022-07-29T01:50:54.408Z,17.50
2022-07-29T01:52:07.107Z,16.30
2022-07-29T01:53:10.945Z,24.90
2022-07-29T01:54:17.243Z,28.70
2022-07-29T01:55:22.550Z,25.20
2022-07-29T01:56:28.172Z,31.30
2022-07-29T01:57:34.021Z,23.40
2022-07-29T01:58:39.153Z,25.30
2022-07-29T01:59:45.212Z,32.60
2022-07-29T02:00:50.461Z,27.90
2022-07-29T02:01:56.026Z,28.80
2022-07-29T02:03:01.306Z,29.50
2022-07-29T02:04:07.900Z,30.20
2022-07-29T02:05:13.404Z,27.60
2022-07-29T02:06:19.765Z,26.50
2022-07-29T02:07:24.274Z,21.10
2022-07-29T02:08:28.686Z,23.90
2022-07-29T02:09:33.654Z,22.30
2022-07-29T02:10:39.295Z,25.60
2022-07-29T02:11:45.102Z,24.40
2022-07-29T02:12:50.725Z,15.50
2022-07-29T02:13:58.718Z,19.90
2022-07-29T02:15:04.406Z,21.40
2022-07-29T02:16:09.055Z,24.20
2022-07-29T02:17:13.525Z,22.80
2022-07-29T02:18:18.311Z,25.70
2022-07-29T02:19:23.712Z,22.60
2022-07-29T02:20:29.077Z,23.70
2022-07-29T02:21:34.195Z,23.40
2022-07-29T02:22:39.289Z,25.40
2022-07-29T02:23:50.324Z,21.20
2022-07-29T02:24:50.710Z,24.80
2022-07-29T02:25:56.516Z,24.00
2022-07-29T02:27:01.045Z,22.70
2022-07-29T02:28:05.709Z,27.00
2022-07-29T02:29:10.278Z,20.70
2022-07-29T02:30:15.617Z,26.80
2022-07-29T02:31:21.131Z,22.40
2022-07-29T02:32:27.473Z,20.20
2022-07-29T02:33:32.775Z,18.60
2022-07-29T02:34:38.936Z,21.10
2022-07-29T02:35:43.653Z,18.00
2022-07-29T02:36:48.902Z,15.40
2022-07-29T02:37:53.647Z,17.10
2022-07-29T02:38:58.177Z,15.50
2022-07-29T02:40:01.859Z,18.60
2022-07-29T02:41:10.991Z,18.00
2022-07-29T02:42:17.857Z,21.40
2022-07-29T02:43:23.078Z,19.70
2022-07-29T02:44:29.033Z,20.10
2022-07-29T02:45:31.780Z,18.20
2022-07-29T02:46:37.203Z,19.90
2022-07-29T02:47:49.023Z,19.50
2022-07-29T02:50:17.013Z,20.10
2022-07-29T02:51:41.524Z,20.20
2022-07-29T02:52:36.462Z,16.00
2022-07-29T02:53:41.174Z,18.20
2022-07-29T02:54:47.218Z,13.40
2022-07-29T02:55:58.889Z,15.30
2022-07-29T02:57:04.747Z,15.30
2022-07-29T02:58:34.763Z,18.70
2022-07-29T02:59:40.528Z,16.70
2022-07-29T03:00:45.729Z,14.30
2022-07-29T03:01:49.883Z,14.50
2022-07-29T03:02:56.333Z,12.60
2022-07-29T03:04:02.061Z,12.40
2022-07-29T03:05:06.946Z,11.70
2022-07-29T03:06:28.717Z,11.30
2022-07-29T03:07:19.355Z,16.40
2022-07-29T03:08:22.786Z,16.60
2022-07-29T03:09:27.465Z,15.40
2022-07-29T03:10:33.211Z,14.60
2022-07-29T03:11:45.942Z,13.80
2022-07-29T03:12:41.375Z,13.40
2022-07-29T03:13:44.185Z,14.90
2022-07-29T03:14:47.912Z,14.73
2022-07-29T03:15:51.300Z,13.40
2022-07-29T03:16:54.141Z,14.00
2022-07-29T03:17:56.998Z,13.70
2022-07-29T03:18:59.631Z,12.55
2022-07-29T03:20:02.689Z,11.27
2022-07-29T03:21:05.215Z,9.55
2022-07-29T03:22:07.578Z,10.80
2022-07-29T03:23:09.941Z,12.60
2022-07-29T03:24:27.925Z,11.91
2022-07-29T03:25:30.633Z,8.80
2022-07-29T03:26:34.328Z,9.10
2022-07-29T03:27:37.456Z,10.30
2022-07-29T03:28:39.701Z,12.40
2022-07-29T03:29:42.033Z,9.60
2022-07-29T03:30:46.510Z,9.70
2022-07-29T03:31:48.919Z,7.90
2022-07-29T03:32:52.553Z,7.30
2022-07-29T03:33:54.996Z,11.40
2022-07-29T03:34:57.126Z,9.30
2022-07-29T03:35:59.284Z,8.20
2022-07-29T03:37:01.647Z,7.20
2022-07-29T03:38:04.201Z,12.30
2022-07-29T03:39:07.398Z,11.40
2022-07-29T03:40:13.877Z,8.10
2022-07-29T03:41:18.894Z,12.60
2022-07-29T03:42:28.897Z,8.90
2022-07-29T03:43:36.160Z,13.00
2022-07-29T03:44:41.056Z,12.00
2022-07-29T03:45:49.778Z,13.40
2022-07-29T03:46:54.233Z,10.90
2022-07-29T03:48:01.426Z,10.90
2022-07-29T03:49:05.574Z,11.00
2022-07-29T03:50:11.544Z,8.80
2022-07-29T03:51:14.373Z,11.50
2022-07-29T03:52:17.428Z,11.36
2022-07-29T03:53:20.796Z,9.50
2022-07-29T03:54:24.493Z,10.30
2022-07-29T03:55:29.734Z,12.30
2022-07-29T03:56:36.172Z,12.70
2022-07-29T03:57:40.023Z,9.00
2022-07-29T03:58:42.604Z,7.60
2022-07-29T03:59:45.104Z,9.10
2022-07-29T04:00:47.978Z,8.64
2022-07-29T04:01:50.880Z,7.20
2022-07-29T04:02:53.281Z,9.60
2022-07-29T04:03:56.428Z,8.10
2022-07-29T04:04:59.016Z,7.20
2022-07-29T04:06:04.876Z,11.00
2022-07-29T04:07:07.105Z,7.00
2022-07-29T04:08:09.274Z,6.40
2022-07-29T04:09:11.944Z,7.40
2022-07-29T04:10:15.590Z,7.60
2022-07-29T04:11:17.802Z,8.20
2022-07-29T04:12:21.228Z,8.70
2022-07-29T04:13:23.309Z,7.50
2022-07-29T04:14:26.777Z,8.40
2022-07-29T04:15:31.371Z,8.60
2022-07-29T04:16:33.732Z,10.10
2022-07-29T04:17:36.058Z,5.50
2022-07-29T04:18:38.273Z,7.50
2022-07-29T04:19:40.519Z,7.80
2022-07-29T04:20:42.996Z,7.10
2022-07-29T04:21:45.160Z,7.60
2022-07-29T04:22:47.433Z,7.80
2022-07-29T04:23:53.337Z,8.00
2022-07-29T04:24:54.071Z,9.30
2022-07-29T04:25:56.139Z,7.70
2022-07-29T04:26:59.336Z,4.10
2022-07-29T04:28:01.364Z,8.20
2022-07-29T04:29:03.835Z,6.90
2022-07-29T04:30:07.433Z,9.00
2022-07-29T04:31:10.895Z,6.30
2022-07-29T04:32:13.377Z,7.20
2022-07-29T04:33:15.648Z,7.80
2022-07-29T04:34:19.666Z,7.90
2022-07-29T04:35:22.513Z,6.20
2022-07-29T04:36:28.570Z,8.27
2022-07-29T04:37:29.187Z,6.90
2022-07-29T04:38:31.506Z,5.00
2022-07-29T04:39:33.604Z,4.40
2022-07-29T04:40:37.388Z,7.09
2022-07-29T04:41:41.411Z,6.20
2022-07-29T04:42:47.243Z,7.50
2022-07-29T04:43:49.813Z,8.80
2022-07-29T04:44:52.480Z,7.20
2022-07-29T04:45:54.608Z,6.80
2022-07-29T04:46:58.332Z,8.60
2022-07-29T04:48:00.580Z,8.80
2022-07-29T04:49:03.656Z,8.20
2022-07-29T04:50:07.386Z,6.80
2022-07-29T04:51:09.622Z,7.80
2022-07-29T04:52:11.902Z,9.30
2022-07-29T04:53:14.039Z,8.30
2022-07-29T04:54:16.410Z,5.30
2022-07-29T04:55:18.840Z,7.80
2022-07-29T04:56:21.526Z,8.10
2022-07-29T04:57:23.893Z,6.00
2022-07-29T04:58:26.066Z,5.90
2022-07-29T04:59:28.240Z,7.40
2022-07-29T05:00:33.437Z,5.30
2022-07-29T05:01:34.906Z,5.70
2022-07-29T05:02:37.442Z,6.00
2022-07-29T05:03:39.707Z,5.30
2022-07-29T05:04:41.755Z,6.30
2022-07-29T05:05:43.839Z,4.00
2022-07-29T05:06:46.377Z,4.40
2022-07-29T05:07:48.946Z,5.50
2022-07-29T05:08:51.109Z,5.90
2022-07-29T05:09:54.287Z,5.60
2022-07-29T05:10:56.747Z,6.20
2022-07-29T05:11:59.029Z,7.50
2022-07-29T05:13:01.315Z,4.30
2022-07-29T05:14:04.497Z,4.70
2022-07-29T05:15:07.961Z,7.90
2022-07-29T05:16:10.748Z,5.10
2022-07-29T05:17:12.768Z,4.20
2022-07-29T05:18:15.435Z,4.00
2022-07-29T05:19:17.935Z,9.45
2022-07-29T05:20:22.105Z,17.00
2022-07-29T05:21:24.154Z,24.55
2022-07-29T05:22:26.315Z,40.90
2022-07-29T05:23:28.568Z,22.40
2022-07-29T05:24:30.656Z,25.00
2022-07-29T05:25:44.395Z,19.20
2022-07-29T05:26:38.016Z,16.70
2022-07-29T05:27:41.210Z,15.30
2022-07-29T05:28:43.395Z,12.60
2022-07-29T05:29:46.644Z,9.60
2022-07-29T05:30:48.945Z,9.00
2022-07-29T05:31:52.699Z,3.40
2022-07-29T05:32:54.842Z,8.20
2022-07-29T05:33:57.105Z,9.30
2022-07-29T05:34:59.163Z,7.70
2022-07-29T05:36:01.419Z,8.80
2022-07-29T05:37:04.709Z,8.70
2022-07-29T05:38:08.014Z,10.40
2022-07-29T05:39:10.353Z,5.80
2022-07-29T05:40:13.685Z,5.80
2022-07-29T05:41:15.742Z,5.80
2022-07-29T05:42:18.464Z,4.90
2022-07-29T05:43:20.722Z,5.64
2022-07-29T05:44:25.304Z,4.50
2022-07-29T05:45:27.083Z,8.00
2022-07-29T05:46:30.649Z,6.70
2022-07-29T05:47:33.036Z,6.40
2022-07-29T05:48:34.957Z,7.00
2022-07-29T05:49:36.948Z,5.11
2022-07-29T05:50:44.043Z,5.40
2022-07-29T05:51:42.915Z,3.90
2022-07-29T05:52:45.054Z,4.80
2022-07-29T05:53:47.211Z,4.60
2022-07-29T05:54:49.383Z,5.40
2022-07-29T05:55:51.836Z,4.40
2022-07-29T05:56:54.188Z,4.30
2022-07-29T05:57:57.412Z,4.30
2022-07-29T05:59:00.586Z,3.40
2022-07-29T06:00:04.083Z,5.80
2022-07-29T06:01:08.216Z,4.30
2022-07-29T06:02:10.562Z,4.30
2022-07-29T06:03:15.846Z,3.60
2022-07-29T06:04:18.478Z,3.40
2022-07-29T06:05:22.417Z,5.55
2022-07-29T06:06:26.614Z,5.70
2022-07-29T06:07:28.975Z,3.20
2022-07-29T06:08:31.238Z,5.50
2022-07-29T06:09:36.147Z,4.00
2022-07-29T06:10:39.569Z,3.80
2022-07-29T06:11:41.707Z,4.20
2022-07-29T06:12:43.963Z,3.90
2022-07-29T06:13:47.550Z,5.91
2022-07-29T06:14:53.888Z,5.73
2022-07-29T06:15:53.743Z,4.40
2022-07-29T06:16:57.753Z,4.27
2022-07-29T06:18:02.301Z,4.90
2022-07-29T06:19:04.950Z,5.40
2022-07-29T06:20:10.790Z,2.50
2022-07-29T06:21:13.334Z,3.80
2022-07-29T06:22:19.040Z,3.80
2022-07-29T06:23:21.566Z,5.80
2022-07-29T06:24:23.789Z,3.60
2022-07-29T06:25:27.081Z,4.20
2022-07-29T06:26:32.633Z,4.80
2022-07-29T06:27:35.084Z,3.30
2022-07-29T06:28:38.581Z,4.20
2022-07-29T06:29:40.898Z,2.82
2022-07-29T06:30:43.891Z,3.60
2022-07-29T06:31:46.248Z,2.50
2022-07-29T06:32:48.429Z,4.10
2022-07-29T06:33:50.954Z,3.50
2022-07-29T06:34:53.534Z,3.60
2022-07-29T06:35:58.274Z,4.00
2022-07-29T06:37:01.023Z,3.90
2022-07-29T06:38:04.095Z,4.30
2022-07-29T06:39:08.849Z,3.20
2022-07-29T06:40:12.402Z,4.10
2022-07-29T06:41:15.073Z,3.50
2022-07-29T06:42:18.200Z,3.20
2022-07-29T06:43:21.985Z,4.30
2022-07-29T06:44:24.927Z,3.90
2022-07-29T06:45:27.083Z,5.10
2022-07-29T06:46:31.339Z,4.90
2022-07-29T06:47:33.649Z,2.90
2022-07-29T06:48:36.011Z,4.90
2022-07-29T06:49:38.269Z,3.10
2022-07-29T06:50:40.939Z,3.60
2022-07-29T06:51:43.123Z,4.60
2022-07-29T06:52:45.872Z,4.80
2022-07-29T06:54:00.282Z,4.45
2022-07-29T06:54:52.142Z,3.50
2022-07-29T06:55:54.494Z,3.80
2022-07-29T06:56:56.935Z,4.60
2022-07-29T06:57:59.216Z,4.20
2022-07-29T06:59:01.403Z,4.80
2022-07-29T07:00:05.956Z,4.82
2022-07-29T07:01:08.203Z,4.90
2022-07-29T07:02:10.638Z,4.20
2022-07-29T07:03:13.893Z,4.00
2022-07-29T07:04:16.229Z,2.70
2022-07-29T07:05:19.540Z,5.60
2022-07-29T07:06:23.538Z,4.00
2022-07-29T07:07:25.914Z,3.10
2022-07-29T07:08:28.203Z,4.20
2022-07-29T07:09:40.138Z,4.70
2022-07-29T07:10:35.200Z,4.20
2022-07-29T07:11:37.395Z,5.60
2022-07-29T07:12:39.981Z,4.80
2022-07-29T07:13:42.461Z,4.27
2022-07-29T07:14:45.719Z,5.10
2022-07-29T07:15:49.123Z,3.40
2022-07-29T07:16:52.699Z,3.30
2022-07-29T07:17:56.813Z,5.00
2022-07-29T07:18:59.360Z,5.00
2022-07-29T07:20:02.441Z,6.80
2022-07-29T07:21:05.723Z,4.00
2022-07-29T07:22:07.932Z,3.80
2022-07-29T07:23:11.061Z,4.20
2022-07-29T07:24:13.557Z,5.40
2022-07-29T07:25:17.012Z,4.70
2022-07-29T07:26:19.987Z,4.70
2022-07-29T07:27:22.455Z,3.80
2022-07-29T07:28:25.266Z,4.90
2022-07-29T07:29:27.736Z,4.00
2022-07-29T07:30:30.263Z,3.60
2022-07-29T07:31:32.449Z,4.20
2022-07-29T07:32:36.955Z,5.20
2022-07-29T07:33:39.597Z,5.60
2022-07-29T07:34:42.064Z,6.00
2022-07-29T07:35:44.826Z,6.60
2022-07-29T07:36:48.235Z,5.00
2022-07-29T07:37:50.613Z,4.80
2022-07-29T07:38:52.944Z,4.20
2022-07-29T07:39:56.440Z,4.80
2022-07-29T07:41:00.604Z,6.30
2022-07-29T07:42:03.726Z,6.60
2022-07-29T07:43:06.266Z,4.40
2022-07-29T07:44:11.782Z,6.70
2022-07-29T07:45:16.615Z,5.60
2022-07-29T07:46:19.092Z,6.80
2022-07-29T07:47:24.358Z,9.90
2022-07-29T07:48:29.061Z,4.70
2022-07-29T07:49:31.676Z,5.70
2022-07-29T07:50:34.785Z,5.91
2022-07-29T07:51:37.463Z,7.40
2022-07-29T07:52:51.626Z,7.10
2022-07-29T07:53:54.944Z,5.60
2022-07-29T07:54:58.582Z,6.30
2022-07-29T07:56:10.559Z,5.80
2022-07-29T07:57:05.045Z,4.90
2022-07-29T07:58:07.177Z,6.00
2022-07-29T07:59:10.424Z,4.70
2022-07-29T08:00:17.400Z,4.70
2022-07-29T08:01:19.849Z,3.30
2022-07-29T08:02:22.330Z,6.50
2022-07-29T08:03:27.207Z,3.90
2022-07-29T08:04:30.151Z,4.90
2022-07-29T08:05:33.201Z,5.30
2022-07-29T08:06:37.503Z,5.50
2022-07-29T08:07:39.835Z,5.82
2022-07-29T08:08:41.979Z,5.50
2022-07-29T08:09:44.348Z,5.00
2022-07-29T08:10:47.014Z,5.40
2022-07-29T08:11:52.448Z,3.40
2022-07-29T08:12:53.782Z,5.40
2022-07-29T08:13:57.062Z,4.20
2022-07-29T08:14:59.177Z,5.10
2022-07-29T08:16:01.441Z,4.20
2022-07-29T08:17:04.972Z,5.00
2022-07-29T08:18:08.889Z,6.30
2022-07-29T08:19:11.651Z,5.40
2022-07-29T08:20:15.643Z,6.00
2022-07-29T08:21:18.190Z,5.20
2022-07-29T08:22:22.819Z,4.90
2022-07-29T08:23:25.912Z,5.10
2022-07-29T08:24:28.165Z,5.50
2022-07-29T08:25:30.419Z,6.20
2022-07-29T08:26:33.440Z,5.30
2022-07-29T08:27:44.419Z,6.50
2022-07-29T08:28:42.529Z,6.10
2022-07-29T08:29:45.961Z,6.10
2022-07-29T08:30:48.704Z,6.90
2022-07-29T08:31:52.175Z,7.50
2022-07-29T08:32:55.718Z,7.27
2022-07-29T08:33:59.215Z,5.50
2022-07-29T08:35:01.402Z,4.90
2022-07-29T08:36:05.755Z,5.40
2022-07-29T08:37:08.191Z,6.10
2022-07-29T08:38:10.461Z,6.80
2022-07-29T08:39:12.641Z,5.90
2022-07-29T08:40:16.971Z,6.70
2022-07-29T08:41:20.303Z,6.90
2022-07-29T08:42:22.548Z,5.00
2022-07-29T08:43:25.837Z,6.20
2022-07-29T08:44:30.968Z,7.10
2022-07-29T08:45:48.492Z,6.10
2022-07-29T08:46:51.245Z,9.50
2022-07-29T08:47:53.320Z,6.70
2022-07-29T08:48:56.125Z,5.40
2022-07-29T08:49:58.731Z,7.00
2022-07-29T08:51:02.503Z,6.10
2022-07-29T08:52:07.352Z,6.70
2022-07-29T08:53:15.896Z,7.00
2022-07-29T08:54:19.248Z,6.50
2022-07-29T08:55:21.744Z,6.30
2022-07-29T08:56:24.713Z,8.80
2022-07-29T08:57:28.287Z,5.60
2022-07-29T08:58:36.637Z,6.10
2022-07-29T08:59:41.099Z,5.00
2022-07-29T09:00:48.592Z,6.10
2022-07-29T09:01:53.773Z,5.30
2022-07-29T09:02:58.217Z,7.70
2022-07-29T09:04:03.543Z,3.80
2022-07-29T09:05:07.393Z,6.00
2022-07-29T09:06:14.784Z,7.00
2022-07-29T09:07:18.726Z,6.20
2022-07-29T09:08:21.594Z,5.80
2022-07-29T09:09:24.484Z,6.18
2022-07-29T09:10:29.194Z,6.70
2022-07-29T09:11:32.993Z,9.00
2022-07-29T09:12:37.978Z,7.20
2022-07-29T09:13:40.226Z,7.10
2022-07-29T09:14:42.537Z,7.20
2022-07-29T09:15:45.205Z,7.70
2022-07-29T09:16:53.506Z,5.90
2022-07-29T09:17:55.372Z,5.90
2022-07-29T09:18:57.727Z,7.10
2022-07-29T09:20:16.286Z,6.50
2022-07-29T09:21:18.649Z,7.40
2022-07-29T09:22:24.468Z,5.60
2022-07-29T09:23:26.980Z,7.60
2022-07-29T09:24:44.215Z,6.10
2022-07-29T09:25:46.359Z,6.80
2022-07-29T09:26:48.687Z,6.10
2022-07-29T09:27:51.116Z,6.40
2022-07-29T09:28:53.173Z,6.00
2022-07-29T09:30:01.055Z,6.50
2022-07-29T09:31:04.367Z,7.30
2022-07-29T09:32:09.268Z,5.90
2022-07-29T09:33:11.458Z,6.50
2022-07-29T09:34:23.463Z,5.10
2022-07-29T09:35:27.144Z,6.20
2022-07-29T09:36:30.189Z,7.30
2022-07-29T09:37:32.554Z,5.10
2022-07-29T09:38:36.853Z,6.30
2022-07-29T09:39:40.772Z,7.10
2022-07-29T09:40:46.904Z,6.40
2022-07-29T09:41:51.952Z,6.60
2022-07-29T09:42:55.332Z,6.50
2022-07-29T09:43:58.975Z,7.20
2022-07-29T09:45:02.348Z,2.90
2022-07-29T09:46:13.577Z,6.00
2022-07-29T09:47:17.910Z,5.70
2022-07-29T09:48:25.368Z,6.20
2022-07-29T09:49:27.580Z,6.40
2022-07-29T09:50:41.350Z,6.55
2022-07-29T09:51:43.600Z,7.00
2022-07-29T09:52:51.571Z,7.00
2022-07-29T09:53:54.464Z,7.70
2022-07-29T09:55:10.345Z,6.00
2022-07-29T09:56:14.779Z,8.20
2022-07-29T09:57:30.607Z,5.10
2022-07-29T09:58:31.674Z,10.50
2022-07-29T09:59:35.311Z,8.10
2022-07-29T10:00:41.154Z,5.90
2022-07-29T10:01:43.993Z,5.60
2022-07-29T10:02:47.786Z,5.90
2022-07-29T10:03:54.695Z,3.00
2022-07-29T10:04:57.696Z,5.70
2022-07-29T10:06:09.718Z,6.30
2022-07-29T10:07:12.074Z,6.00
2022-07-29T10:08:16.028Z,2.20
2022-07-29T10:09:18.201Z,7.20
2022-07-29T10:10:25.550Z,6.40
2022-07-29T10:11:27.650Z,6.00
2022-07-29T10:12:31.774Z,6.60
2022-07-29T10:13:34.259Z,7.90
2022-07-29T10:14:37.899Z,7.10
2022-07-29T10:15:44.021Z,6.20
2022-07-29T10:16:47.024Z,7.40
2022-07-29T10:17:50.752Z,7.64
2022-07-29T10:18:53.067Z,7.80
2022-07-29T10:19:56.370Z,7.60
2022-07-29T10:20:59.247Z,7.10
2022-07-29T10:22:05.256Z,5.50
2022-07-29T10:23:07.374Z,5.90
2022-07-29T10:24:15.044Z,10.30
2022-07-29T10:25:16.060Z,7.80
2022-07-29T10:26:22.767Z,7.60
2022-07-29T10:27:24.983Z,8.10
2022-07-29T10:28:27.272Z,7.00
2022-07-29T10:29:30.424Z,8.30
2022-07-29T10:30:35.272Z,7.10
2022-07-29T10:31:46.945Z,4.40
2022-07-29T10:33:27.808Z,7.30
2022-07-29T10:34:52.439Z,6.30
2022-07-29T10:36:15.239Z,5.50
2022-07-29T10:37:28.384Z,5.10
2022-07-29T10:38:45.973Z,7.60
2022-07-29T10:40:13.773Z,6.40
2022-07-29T10:41:43.899Z,5.60
2022-07-29T10:42:46.076Z,4.70
2022-07-29T10:43:52.234Z,7.30
2022-07-29T10:44:56.433Z,6.00
2022-07-29T10:46:00.872Z,5.90
2022-07-29T10:47:03.897Z,6.00
2022-07-29T10:48:07.838Z,6.70
2022-07-29T10:49:16.558Z,7.40
2022-07-29T10:50:22.041Z,7.80
2022-07-29T10:51:25.461Z,6.90
2022-07-29T10:52:51.601Z,6.00
2022-07-29T10:53:55.048Z,7.10
2022-07-29T10:54:58.379Z,8.00
2022-07-29T10:56:00.598Z,6.18
2022-07-29T10:57:25.943Z,8.00
2022-07-29T10:58:28.901Z,7.70
2022-07-29T10:59:36.470Z,6.00
2022-07-29T11:00:35.455Z,6.90
2022-07-29T11:01:39.306Z,7.30
2022-07-29T11:02:43.800Z,7.60
2022-07-29T11:03:50.562Z,7.20
2022-07-29T11:04:57.956Z,6.50
2022-07-29T11:06:00.571Z,6.70
2022-07-29T11:07:07.967Z,5.40
2022-07-29T11:08:20.553Z,3.00
2022-07-29T11:09:25.744Z,8.20
2022-07-29T11:11:32.571Z,5.80
2022-07-29T11:12:40.170Z,8.10
2022-07-29T11:13:49.289Z,7.60
2022-07-29T11:14:58.607Z,6.40
2022-07-29T11:16:00.856Z,6.70
2022-07-29T11:17:07.074Z,5.78
2022-07-29T11:18:15.176Z,6.70
2022-07-29T11:19:26.341Z,6.10
2022-07-29T11:20:38.472Z,7.50
2022-07-29T11:21:54.169Z,7.30
2022-07-29T11:22:50.534Z,6.40
2022-07-29T11:23:56.882Z,5.70
2022-07-29T11:25:17.191Z,6.40
2022-07-29T11:26:23.302Z,5.20
2022-07-29T11:27:29.308Z,6.70
2022-07-29T11:28:35.814Z,6.10
2022-07-29T11:29:51.330Z,6.30
2022-07-29T11:30:54.763Z,6.50
2022-07-29T11:32:00.471Z,8.30
2022-07-29T11:33:03.919Z,7.40
2022-07-29T11:35:38.033Z,6.50
2022-07-29T11:36:33.470Z,8.50
2022-07-29T11:37:42.513Z,6.67
2022-07-29T11:38:41.666Z,8.20
2022-07-29T11:40:02.180Z,6.90
2022-07-29T11:41:20.911Z,8.20
2022-07-29T11:42:32.260Z,4.10
2022-07-29T11:43:53.613Z,6.30
2022-07-29T11:45:08.468Z,7.60
2022-07-29T11:46:06.514Z,6.90
2022-07-29T11:47:11.355Z,7.20
2022-07-29T11:49:31.787Z,8.40
2022-07-29T11:50:37.355Z,5.90
2022-07-29T11:51:48.301Z,6.60
2022-07-29T11:52:49.681Z,7.70
2022-07-29T11:53:52.587Z,7.20
2022-07-29T11:55:00.767Z,5.90
2022-07-29T11:56:05.143Z,7.60
2022-07-29T11:57:08.291Z,5.60
2022-07-29T11:58:11.549Z,8.91
2022-07-29T11:59:15.493Z,8.00
2022-07-29T12:00:27.545Z,8.80
2022-07-29T12:01:29.740Z,7.50
2022-07-29T12:02:43.606Z,5.44
2022-07-29T12:03:47.169Z,8.70
2022-07-29T12:04:56.883Z,6.00
2022-07-29T12:05:59.700Z,6.00
2022-07-29T12:07:03.279Z,7.40
2022-07-29T12:08:14.768Z,6.40
2022-07-29T12:09:18.228Z,7.00
2022-07-29T12:10:29.542Z,5.80
2022-07-29T12:11:33.083Z,8.00
2022-07-29T12:12:37.028Z,9.00
2022-07-29T12:13:40.467Z,8.30
2022-07-29T12:14:42.450Z,8.11
2022-07-29T12:15:54.099Z,7.44
2022-07-29T12:16:57.551Z,9.40
2022-07-29T12:18:13.267Z,6.50
2022-07-29T12:19:15.428Z,6.50
2022-07-29T12:20:29.869Z,6.80
2022-07-29T12:21:57.022Z,7.70
2022-07-29T12:22:52.622Z,6.30
2022-07-29T12:23:57.730Z,7.10
2022-07-29T12:26:25.528Z,8.60
2022-07-29T12:27:29.342Z,8.36
2022-07-29T12:28:27.728Z,7.40
2022-07-29T12:29:33.882Z,7.50
2022-07-29T12:30:46.329Z,6.90
2022-07-29T12:31:54.561Z,6.30
2022-07-29T12:32:59.583Z,5.60
2022-07-29T12:34:02.109Z,7.20
2022-07-29T12:35:07.143Z,8.67
2022-07-29T12:36:17.299Z,8.20
2022-07-29T12:37:15.534Z,7.00
2022-07-29T12:38:18.842Z,7.11
2022-07-29T12:39:21.259Z,7.00
2022-07-29T12:40:25.093Z,4.80
2022-07-29T12:41:31.658Z,7.20
2022-07-29T12:42:34.322Z,7.90
2022-07-29T12:43:37.945Z,7.70
2022-07-29T12:44:50.826Z,11.00
2022-07-29T12:45:55.375Z,6.80
2022-07-29T12:47:04.464Z,6.80
2022-07-29T12:48:09.653Z,6.50
2022-07-29T12:49:15.672Z,6.30
2022-07-29T12:50:22.135Z,7.40
2022-07-29T12:51:34.469Z,8.00
2022-07-29T12:52:37.353Z,8.10
2022-07-29T12:53:40.544Z,9.30
2022-07-29T12:54:48.054Z,6.90
2022-07-29T12:55:53.473Z,7.30
2022-07-29T12:56:59.892Z,6.50
2022-07-29T12:58:02.218Z,6.90
2022-07-29T12:59:18.058Z,5.89
2022-07-29T13:00:24.661Z,6.30
2022-07-29T13:01:27.993Z,6.20
2022-07-29T13:02:31.993Z,7.70
2022-07-29T13:03:57.102Z,9.10
2022-07-29T13:05:00.576Z,7.20
2022-07-29T13:06:04.475Z,7.40
2022-07-29T13:07:08.336Z,6.80
2022-07-29T13:08:20.066Z,7.70
2022-07-29T13:09:20.774Z,7.10
2022-07-29T13:10:25.042Z,9.00
2022-07-29T13:11:34.220Z,5.91
2022-07-29T13:12:37.586Z,7.90
2022-07-29T13:14:05.964Z,6.00
2022-07-29T13:14:57.316Z,7.20
2022-07-29T13:16:08.036Z,4.00
2022-07-29T13:17:18.790Z,6.60
2022-07-29T13:18:33.236Z,8.10
2022-07-29T13:19:41.266Z,6.50
2022-07-29T13:20:44.624Z,7.80
2022-07-29T13:21:47.074Z,6.70
2022-07-29T13:22:49.962Z,6.78
2022-07-29T13:23:52.189Z,7.80
2022-07-29T13:25:02.121Z,7.11
2022-07-29T13:26:09.902Z,7.20
2022-07-29T13:27:12.148Z,6.40
2022-07-29T13:28:14.164Z,6.78
2022-07-29T13:29:17.371Z,7.89
2022-07-29T13:30:21.275Z,6.70
2022-07-29T13:31:23.707Z,7.30
2022-07-29T13:32:28.860Z,6.67
2022-07-29T13:33:32.001Z,6.40
2022-07-29T13:34:34.575Z,6.20
2022-07-29T13:35:40.152Z,4.89
2022-07-29T13:36:42.576Z,7.60
2022-07-29T13:37:44.966Z,5.00
2022-07-29T13:38:48.155Z,8.11
2022-07-29T13:39:52.697Z,5.50
2022-07-29T13:40:54.937Z,6.40
2022-07-29T13:41:57.511Z,6.22
2022-07-29T13:43:00.056Z,5.40
2022-07-29T13:44:02.788Z,6.56
2022-07-29T13:45:06.458Z,5.90
2022-07-29T13:46:10.398Z,6.40
2022-07-29T13:47:12.642Z,6.67
2022-07-29T13:48:17.768Z,6.00
2022-07-29T13:49:20.092Z,5.80
2022-07-29T13:50:23.022Z,7.80
2022-07-29T13:51:25.072Z,6.22
2022-07-29T13:52:27.630Z,6.78
2022-07-29T13:53:30.616Z,9.56
2022-07-29T13:54:33.734Z,6.80
2022-07-29T13:55:35.770Z,5.80
2022-07-29T13:56:39.329Z,5.50
2022-07-29T13:57:41.517Z,7.80
2022-07-29T13:58:43.643Z,6.78
2022-07-29T13:59:49.473Z,7.22
2022-07-29T14:00:50.877Z,6.70
2022-07-29T14:01:53.461Z,6.70
2022-07-29T14:02:56.137Z,5.78
2022-07-29T14:03:58.521Z,6.56
2022-07-29T14:05:04.970Z,6.80
2022-07-29T14:06:05.235Z,8.50
2022-07-29T14:07:08.265Z,6.67
2022-07-29T14:08:10.794Z,7.40
2022-07-29T14:09:13.637Z,5.11
2022-07-29T14:10:20.180Z,5.30
2022-07-29T14:11:22.135Z,6.10
2022-07-29T14:12:24.288Z,6.11
2022-07-29T14:13:26.506Z,6.67
2022-07-29T14:14:31.502Z,6.33
2022-07-29T14:15:33.836Z,5.60
2022-07-29T14:16:43.036Z,5.80
2022-07-29T14:17:43.771Z,6.20
2022-07-29T14:18:46.395Z,5.20
2022-07-29T14:19:48.716Z,7.00
2022-07-29T14:20:51.317Z,7.00
2022-07-29T14:21:53.409Z,8.22
2022-07-29T14:22:56.217Z,6.67
2022-07-29T14:23:58.763Z,6.89
2022-07-29T14:25:14.741Z,6.40